createdAt,value
2023-01-01T00:00:11.692Z,100691.50
2023-01-01T00:02:39.974Z,100683.44
2023-01-01T00:05:09.385Z,100693.53
2023-01-01T00:07:37.663Z,100685.72
2023-01-01T00:10:26.018Z,100696.84
2023-01-01T00:12:55.145Z,100681.56
2023-01-01T00:15:23.396Z,100662.91
2023-01-01T00:17:51.580Z,100673.13
2023-01-01T00:20:20.280Z,100680.38
2023-01-01T00:22:56.493Z,100669.22
2023-01-01T00:25:26.410Z,100673.69
2023-01-01T00:27:54.693Z,100671.97
2023-01-01T00:30:25.695Z,100669.81
2023-01-01T00:32:55.299Z,100676.41
2023-01-01T00:35:25.124Z,100671.41
2023-01-01T00:37:53.560Z,100681.16
2023-01-01T00:40:21.956Z,100688.44
2023-01-01T00:42:51.514Z,100688.63
2023-01-01T00:45:22.349Z,100690.88
2023-01-01T00:47:51.970Z,100700.03
2023-01-01T00:50:20.542Z,100688.47
2023-01-01T00:52:49.161Z,100678.38
2023-01-01T00:55:17.686Z,100684.56
2023-01-01T00:57:46.005Z,100680.63
2023-01-01T01:00:17.489Z,100681.50
2023-01-01T01:02:45.776Z,100684.78
2023-01-01T01:05:14.161Z,100678.13
2023-01-01T01:07:43.302Z,100689.78
2023-01-01T01:10:12.229Z,100682.00
2023-01-01T01:12:40.603Z,100686.19
2023-01-01T01:15:11.108Z,100699.75
2023-01-01T01:17:41.010Z,100686.22
2023-01-01T01:20:10.655Z,100699.41
2023-01-01T01:22:39.248Z,100701.69
2023-01-01T01:25:09.086Z,100697.84
2023-01-01T01:27:37.313Z,100693.41
2023-01-01T01:30:07.227Z,100705.41
2023-01-01T01:32:35.399Z,100704.84
2023-01-01T01:35:05.792Z,100697.59
2023-01-01T01:37:34.005Z,100702.94
2023-01-01T01:40:02.248Z,100704.97
2023-01-01T01:42:30.456Z,100715.03
2023-01-01T01:45:00.943Z,100705.19
2023-01-01T01:47:35.369Z,100716.25
2023-01-01T01:50:12.650Z,100718.81
2023-01-01T01:52:46.014Z,100716.03
2023-01-01T01:55:15.235Z,100725.13
2023-01-01T01:57:43.955Z,100722.47
2023-01-01T02:00:14.560Z,100728.88
2023-01-01T02:02:51.944Z,100729.88
2023-01-01T02:05:23.507Z,100724.50
2023-01-01T02:07:53.750Z,100723.50
2023-01-01T02:10:22.508Z,100716.81
2023-01-01T02:12:50.826Z,100728.28
2023-01-01T02:15:19.574Z,100720.88
2023-01-01T02:18:00.010Z,100727.63
2023-01-01T02:20:42.119Z,100722.94
2023-01-01T02:23:44.702Z,100732.38
2023-01-01T02:26:38.774Z,100728.03
2023-01-01T02:29:22.175Z,100726.53
2023-01-01T02:31:55.663Z,100733.09
2023-01-01T02:34:29.643Z,100734.31
2023-01-01T02:37:01.597Z,100723.38
2023-01-01T02:39:34.998Z,100725.16
2023-01-01T02:42:06.928Z,100723.53
2023-01-01T02:44:44.699Z,100730.75
2023-01-01T02:47:17.599Z,100734.31
2023-01-01T02:50:02.141Z,100730.34
2023-01-01T02:52:50.211Z,100720.63
2023-01-01T02:55:28.301Z,100727.34
2023-01-01T02:58:27.072Z,100735.47
2023-01-01T03:01:02.019Z,100732.84
2023-01-01T03:03:38.748Z,100732.53
2023-01-01T03:06:27.111Z,100751.84
2023-01-01T03:09:04.188Z,100761.13
2023-01-01T03:11:39.740Z,100755.34
2023-01-01T03:14:17.393Z,100759.09
2023-01-01T03:16:54.623Z,100758.13
2023-01-01T03:19:27.417Z,100748.09
2023-01-01T03:22:02.737Z,100744.88
2023-01-01T03:24:35.932Z,100750.88
2023-01-01T03:27:10.960Z,100742.31
2023-01-01T03:29:43.086Z,100751.38
2023-01-01T03:32:19.811Z,100756.66
2023-01-01T03:34:54.899Z,100763.69
2023-01-01T03:37:28.174Z,100773.41
2023-01-01T03:40:00.597Z,100769.88
2023-01-01T03:42:36.831Z,100784.22
2023-01-01T03:45:09.856Z,100776.44
2023-01-01T03:47:39.742Z,100767.69
2023-01-01T03:50:09.210Z,100779.97
2023-01-01T03:52:44.640Z,100764.34
2023-01-01T03:55:20.790Z,100749.91
2023-01-01T03:58:01.461Z,100762.22
2023-01-01T04:00:36.233Z,100777.41
2023-01-01T04:03:10.712Z,100792.94
2023-01-01T04:05:43.586Z,100793.75
2023-01-01T04:08:13.683Z,100800.28
2023-01-01T04:10:45.803Z,100790.06
2023-01-01T04:13:14.332Z,100781.75
2023-01-01T04:15:42.852Z,100782.63
2023-01-01T04:18:12.419Z,100781.72
2023-01-01T04:20:40.670Z,100788.63
2023-01-01T04:23:09.175Z,100782.03
2023-01-01T04:25:37.670Z,100781.63
2023-01-01T04:28:06.339Z,100786.16
2023-01-01T04:33:04.920Z,100791.38
2023-01-01T04:35:34.473Z,100782.41
2023-01-01T04:38:03.820Z,100793.25
2023-01-01T04:40:32.018Z,100788.63
2023-01-01T04:43:00.173Z,100798.78
2023-01-01T04:45:28.438Z,100806.94
2023-01-01T04:47:56.633Z,100808.19
2023-01-01T04:50:25.139Z,100810.72
2023-01-01T04:52:54.981Z,100808.97
2023-01-01T04:55:23.439Z,100818.66
2023-01-01T04:57:51.917Z,100815.44
2023-01-01T05:00:21.380Z,100815.69
2023-01-01T05:02:49.604Z,100815.31
2023-01-01T05:05:19.141Z,100799.09
2023-01-01T05:07:47.349Z,100792.53
2023-01-01T05:10:17.069Z,100805.22
2023-01-01T05:12:45.278Z,100792.63
2023-01-01T05:15:13.465Z,100798.19
2023-01-01T05:17:41.653Z,100800.03
2023-01-01T05:20:10.747Z,100793.75
2023-01-01T05:22:38.986Z,100792.25
2023-01-01T05:25:08.510Z,100802.88
2023-01-01T05:27:38.400Z,100820.81
2023-01-01T05:30:08.612Z,100825.22
2023-01-01T05:32:38.430Z,100826.97
2023-01-01T05:35:07.506Z,100834.03
2023-01-01T05:37:35.704Z,100842.63
2023-01-01T05:40:03.921Z,100867.81
2023-01-01T05:42:32.181Z,100852.22
2023-01-01T05:45:01.719Z,100850.78
2023-01-01T05:47:30.178Z,100839.47
2023-01-01T05:49:58.398Z,100858.63
2023-01-01T05:52:27.192Z,100874.06
2023-01-01T05:54:55.711Z,100879.38
2023-01-01T05:57:24.253Z,100858.63
2023-01-01T05:59:52.725Z,100862.53
2023-01-01T06:02:22.453Z,100869.38
2023-01-01T06:04:51.095Z,100874.44
2023-01-01T06:07:19.755Z,100892.34
2023-01-01T06:09:48.314Z,100897.28
2023-01-01T06:12:16.822Z,100900.44
2023-01-01T06:14:45.306Z,100900.66
2023-01-01T06:17:13.530Z,100903.03
2023-01-01T06:19:43.082Z,100916.09
2023-01-01T06:22:11.652Z,100911.56
2023-01-01T06:24:40.126Z,100910.19
2023-01-01T06:27:08.702Z,100922.47
2023-01-01T06:29:36.856Z,100919.84
2023-01-01T06:32:05.787Z,100912.06
2023-01-01T06:34:33.984Z,100923.19
2023-01-01T06:37:06.974Z,100924.41
2023-01-01T06:39:35.439Z,100927.09
2023-01-01T06:42:03.982Z,100937.81
2023-01-01T06:44:32.459Z,100939.69
2023-01-01T06:47:00.672Z,100950.91
2023-01-01T06:49:29.186Z,100955.72
2023-01-01T06:51:57.677Z,100947.66
2023-01-01T06:54:27.634Z,100936.00
2023-01-01T06:56:56.104Z,100939.28
2023-01-01T06:59:24.301Z,100944.34
2023-01-01T07:01:52.576Z,100957.91
2023-01-01T07:04:21.357Z,100944.44
2023-01-01T07:06:49.828Z,100961.91
2023-01-01T07:09:18.429Z,100962.44
2023-01-01T07:11:48.274Z,100962.31
2023-01-01T07:14:16.789Z,100961.88
2023-01-01T07:16:44.996Z,100972.25
2023-01-01T07:19:13.745Z,100969.34
2023-01-01T07:21:44.597Z,100981.97
2023-01-01T07:24:15.015Z,100991.47
2023-01-01T07:26:43.756Z,100997.47
2023-01-01T07:29:14.077Z,101000.28
2023-01-01T07:31:44.492Z,101009.41
2023-01-01T07:34:16.024Z,101013.44
2023-01-01T07:36:44.317Z,101016.78
2023-01-01T07:39:12.573Z,101016.91
2023-01-01T07:41:41.151Z,101007.75
2023-01-01T07:44:09.639Z,101019.78
2023-01-01T07:46:39.339Z,101025.47
2023-01-01T07:49:07.660Z,101028.28
2023-01-01T07:51:36.312Z,101044.94
2023-01-01T07:54:07.302Z,101046.09
2023-01-01T07:56:36.516Z,101051.63
2023-01-01T07:59:05.507Z,101041.41
2023-01-01T08:01:39.129Z,101043.00
2023-01-01T08:04:07.675Z,101053.06
2023-01-01T08:06:35.851Z,101055.28
2023-01-01T08:09:04.103Z,101064.03
2023-01-01T08:11:32.317Z,101067.22
2023-01-01T08:14:00.619Z,101075.06
2023-01-01T08:16:28.807Z,101075.31
2023-01-01T08:18:58.664Z,101070.78
2023-01-01T08:21:26.891Z,101070.97
2023-01-01T08:23:55.081Z,101075.47
2023-01-01T08:26:30.506Z,101068.75
2023-01-01T08:28:59.366Z,101074.00
2023-01-01T08:31:27.611Z,101080.09
2023-01-01T08:33:55.872Z,101079.75
2023-01-01T08:36:25.730Z,101087.28
2023-01-01T08:38:53.945Z,101108.72
2023-01-01T08:41:22.257Z,101113.13
2023-01-01T08:43:50.447Z,101125.63
2023-01-01T08:46:19.045Z,101115.84
2023-01-01T08:48:47.554Z,101123.34
2023-01-01T08:51:16.085Z,101126.84
2023-01-01T08:53:50.919Z,101129.09
2023-01-01T08:56:20.430Z,101123.06
2023-01-01T08:58:48.979Z,101125.53
2023-01-01T09:01:17.610Z,101134.38
2023-01-01T09:03:46.228Z,101142.38
2023-01-01T09:06:15.173Z,101130.13
2023-01-01T09:08:43.380Z,101158.56
2023-01-01T09:11:24.696Z,101151.50
2023-01-01T09:13:54.000Z,101161.63
2023-01-01T09:16:23.717Z,101171.69
2023-01-01T09:18:52.213Z,101170.31
2023-01-01T09:21:20.381Z,101169.31
2023-01-01T09:23:48.692Z,101170.31
2023-01-01T09:26:18.259Z,101181.50
2023-01-01T09:28:46.495Z,101174.03
2023-01-01T09:31:15.051Z,101180.09
2023-01-01T09:33:43.574Z,101173.88
2023-01-01T09:36:16.327Z,101177.91
2023-01-01T09:38:49.363Z,101186.97
2023-01-01T09:41:30.529Z,101190.47
2023-01-01T09:44:09.322Z,101205.34
2023-01-01T09:46:37.876Z,101205.09
2023-01-01T09:49:14.089Z,101211.66
2023-01-01T09:51:51.038Z,101215.94
2023-01-01T09:54:29.673Z,101218.06
2023-01-01T09:57:02.121Z,101213.66
2023-01-01T09:59:31.003Z,101216.47
2023-01-01T10:02:07.384Z,101230.22
2023-01-01T10:04:56.086Z,101235.38
2023-01-01T10:07:37.246Z,101236.56
2023-01-01T10:10:17.143Z,101239.72
2023-01-01T10:12:55.860Z,101221.47
2023-01-01T10:15:28.803Z,101217.81
2023-01-01T10:18:01.201Z,101222.31
2023-01-01T10:20:34.599Z,101206.06
2023-01-01T10:23:12.895Z,101204.63
2023-01-01T10:25:41.938Z,101213.19
2023-01-01T10:28:22.099Z,101201.75
2023-01-01T10:30:52.887Z,101203.06
2023-01-01T10:33:21.058Z,101206.94
2023-01-01T10:35:52.744Z,101211.06
2023-01-01T10:38:26.105Z,101201.84
2023-01-01T10:41:13.638Z,101193.81
2023-01-01T10:43:48.378Z,101183.63
2023-01-01T10:46:29.409Z,101184.31
2023-01-01T10:49:10.879Z,101185.06
2023-01-01T10:51:44.870Z,101180.34
2023-01-01T10:54:33.466Z,101184.19
2023-01-01T10:57:13.725Z,101171.94
2023-01-01T10:59:51.704Z,101177.22
2023-01-01T11:02:24.469Z,101185.72
2023-01-01T11:05:19.300Z,101183.47
2023-01-01T11:07:49.876Z,101195.34
2023-01-01T11:10:22.300Z,101197.50
2023-01-01T11:13:08.654Z,101198.53
2023-01-01T11:15:41.867Z,101196.44
2023-01-01T11:18:15.824Z,101197.59
2023-01-01T11:20:44.810Z,101217.25
2023-01-01T11:23:28.451Z,101221.88
2023-01-01T11:26:07.836Z,101234.38
2023-01-01T11:28:36.841Z,101230.34
2023-01-01T11:31:14.806Z,101231.44
2023-01-01T11:33:49.158Z,101228.13
2023-01-01T11:36:25.121Z,101234.34
2023-01-01T11:39:13.986Z,101236.00
2023-01-01T11:41:47.872Z,101245.22
2023-01-01T11:44:31.082Z,101246.66
2023-01-01T11:47:01.384Z,101244.88
2023-01-01T11:49:31.546Z,101241.72
2023-01-01T11:52:00.107Z,101250.25
2023-01-01T11:54:35.944Z,101239.94
2023-01-01T11:57:13.519Z,101249.50
2023-01-01T11:59:50.687Z,101246.19
2023-01-01T12:02:35.319Z,101236.19
2023-01-01T12:05:14.749Z,101227.00
2023-01-01T12:07:45.099Z,101223.06
2023-01-01T12:10:23.415Z,101215.06
2023-01-01T12:12:58.695Z,101219.41
2023-01-01T12:15:31.683Z,101212.84
2023-01-01T12:18:08.118Z,101214.03
2023-01-01T12:20:40.402Z,101210.91
2023-01-01T12:23:12.386Z,101208.06
2023-01-01T12:25:44.981Z,101212.25
2023-01-01T12:28:30.897Z,101210.84
2023-01-01T12:31:10.137Z,101206.69
2023-01-01T12:33:54.912Z,101198.47
2023-01-01T12:36:39.556Z,101198.94
2023-01-01T12:40:15.056Z,101199.97
2023-01-01T12:43:00.979Z,101210.19
2023-01-01T12:45:58.898Z,101207.63
2023-01-01T12:48:53.979Z,101218.59
2023-01-01T12:51:35.790Z,101218.84
2023-01-01T12:54:40.597Z,101211.19
2023-01-01T12:57:15.648Z,101218.50
2023-01-01T12:59:50.829Z,101209.91
2023-01-01T13:02:24.436Z,101205.84
2023-01-01T13:04:57.985Z,101205.19
2023-01-01T13:07:33.093Z,101210.91
2023-01-01T13:10:11.347Z,101193.38
2023-01-01T13:12:40.095Z,101195.41
2023-01-01T13:15:46.843Z,101208.13
2023-01-01T13:18:28.624Z,101214.28
2023-01-01T13:21:02.286Z,101215.63
2023-01-01T13:23:52.965Z,101225.75
2023-01-01T13:26:43.219Z,101219.84
2023-01-01T13:29:49.969Z,101228.38
2023-01-01T13:32:18.177Z,101220.84
2023-01-01T13:35:18.509Z,101229.97
2023-01-01T13:37:48.575Z,101213.34
2023-01-01T13:40:53.190Z,101217.13
2023-01-01T13:43:32.047Z,101210.00
2023-01-01T13:46:12.691Z,101214.97
2023-01-01T13:49:12.362Z,101211.00
2023-01-01T13:52:20.315Z,101217.91
2023-01-01T13:55:36.329Z,101210.50
2023-01-01T13:58:36.721Z,101228.38
2023-01-01T14:01:41.220Z,101206.97
2023-01-01T14:04:28.466Z,101201.50
2023-01-01T14:07:09.202Z,101196.31
2023-01-01T14:09:46.996Z,101201.06
2023-01-01T14:12:19.139Z,101200.63
2023-01-01T14:14:49.225Z,101204.16
2023-01-01T14:17:18.169Z,101197.44
2023-01-01T14:19:46.409Z,101206.94
2023-01-01T14:22:18.010Z,101202.78
2023-01-01T14:24:48.448Z,101214.75
2023-01-01T14:27:22.847Z,101206.78
2023-01-01T14:29:53.333Z,101211.06
2023-01-01T14:32:27.309Z,101211.47
2023-01-01T14:35:02.912Z,101208.63
2023-01-01T14:37:31.138Z,101209.03
2023-01-01T14:40:17.958Z,101217.53
2023-01-01T14:42:48.434Z,101223.13
2023-01-01T14:45:19.849Z,101222.34
2023-01-01T14:47:51.702Z,101224.66
2023-01-01T14:50:26.456Z,101223.31
2023-01-01T14:53:01.994Z,101228.84
2023-01-01T14:55:39.171Z,101231.13
2023-01-01T14:58:11.859Z,101246.16
2023-01-01T15:00:41.814Z,101234.88
2023-01-01T15:03:15.822Z,101238.81
2023-01-01T15:05:46.888Z,101242.34
2023-01-01T15:08:23.441Z,101239.41
2023-01-01T15:10:52.397Z,101234.88
2023-01-01T15:13:23.793Z,101225.97
2023-01-01T15:15:55.337Z,101220.50
2023-01-01T15:18:41.583Z,101218.25
2023-01-01T15:21:16.706Z,101205.53
2023-01-01T15:23:55.160Z,101200.66
2023-01-01T15:26:31.240Z,101194.22
2023-01-01T15:29:01.023Z,101188.06
2023-01-01T15:31:39.896Z,101195.94
2023-01-01T15:34:18.098Z,101193.72
2023-01-01T15:36:46.340Z,101201.84
2023-01-01T15:39:15.159Z,101206.47
2023-01-01T15:41:47.133Z,101222.47
2023-01-01T15:44:22.503Z,101223.03
2023-01-01T15:46:52.925Z,101223.88
2023-01-01T15:49:26.680Z,101225.97
2023-01-01T15:51:57.732Z,101230.53
2023-01-01T15:54:26.971Z,101225.09
2023-01-01T15:56:55.448Z,101239.06
2023-01-01T15:59:34.433Z,101227.34
2023-01-01T16:02:14.902Z,101217.28
2023-01-01T16:04:47.998Z,101216.97
2023-01-01T16:07:23.709Z,101226.59
2023-01-01T16:09:57.331Z,101214.13
2023-01-01T16:12:26.709Z,101215.94
2023-01-01T16:14:54.914Z,101224.53
2023-01-01T16:17:24.601Z,101218.22
2023-01-01T16:19:52.847Z,101213.53
2023-01-01T16:22:21.116Z,101217.88
2023-01-01T16:24:49.384Z,101222.84
2023-01-01T16:27:18.087Z,101226.91
2023-01-01T16:29:52.733Z,101226.91
2023-01-01T16:32:24.171Z,101234.28
2023-01-01T16:34:52.426Z,101231.41
2023-01-01T16:37:22.933Z,101245.38
2023-01-01T16:39:51.450Z,101236.34
2023-01-01T16:42:19.832Z,101238.84
2023-01-01T16:44:48.002Z,101238.84
2023-01-01T16:47:16.324Z,101237.72
2023-01-01T16:49:47.481Z,101245.19
2023-01-01T16:52:15.713Z,101236.44
2023-01-01T16:54:44.139Z,101230.97
2023-01-01T16:57:12.354Z,101226.53
2023-01-01T16:59:40.546Z,101233.38
2023-01-01T17:02:12.069Z,101222.34
2023-01-01T17:04:40.323Z,101217.75
2023-01-01T17:07:09.886Z,101214.09
2023-01-01T17:09:38.096Z,101213.25
2023-01-01T17:12:06.818Z,101202.34
2023-01-01T17:14:35.006Z,101198.66
2023-01-01T17:17:03.253Z,101196.19
2023-01-01T17:19:31.441Z,101187.44
2023-01-01T17:21:59.636Z,101185.25
2023-01-01T17:24:29.200Z,101184.16
2023-01-01T17:26:57.378Z,101183.34
2023-01-01T17:29:26.945Z,101184.03
2023-01-01T17:31:55.327Z,101179.38
2023-01-01T17:34:23.490Z,101176.66
2023-01-01T17:36:51.751Z,101173.84
2023-01-01T17:39:19.966Z,101181.22
2023-01-01T17:41:50.508Z,101176.22
2023-01-01T17:44:18.686Z,101171.47
2023-01-01T17:46:47.266Z,101166.28
2023-01-01T17:49:17.313Z,101156.97
2023-01-01T17:51:45.513Z,101162.53
2023-01-01T17:54:14.121Z,101155.19
2023-01-01T17:56:42.785Z,101153.16
2023-01-01T17:59:12.585Z,101152.38
2023-01-01T18:01:41.088Z,101149.50
2023-01-01T18:04:11.410Z,101150.19
2023-01-01T18:06:43.619Z,101148.94
2023-01-01T18:09:15.123Z,101148.31
2023-01-01T18:11:44.438Z,101155.53
2023-01-01T18:14:17.310Z,101143.06
2023-01-01T18:16:49.547Z,101142.00
2023-01-01T18:19:17.883Z,101146.69
2023-01-01T18:21:46.066Z,101137.03
2023-01-01T18:24:16.533Z,101136.88
2023-01-01T18:26:44.888Z,101141.34
2023-01-01T18:29:14.520Z,101133.56
2023-01-01T18:31:42.863Z,101132.28
2023-01-01T18:34:12.235Z,101129.75
2023-01-01T18:36:40.714Z,101132.28
2023-01-01T18:39:16.912Z,101127.53
2023-01-01T18:42:32.581Z,101114.25
2023-01-01T18:45:16.060Z,101118.03
2023-01-01T18:47:45.849Z,101107.28
2023-01-01T18:50:23.994Z,101111.66
2023-01-01T18:52:55.510Z,101106.88
2023-01-01T18:55:27.959Z,101107.63
2023-01-01T18:58:01.861Z,101107.25
2023-01-01T19:00:33.281Z,101102.34
2023-01-01T19:03:03.744Z,101103.25
2023-01-01T19:05:34.676Z,101101.41
2023-01-01T19:08:15.698Z,101100.28
2023-01-01T19:10:47.900Z,101092.28
2023-01-01T19:13:20.782Z,101086.44
2023-01-01T19:15:53.842Z,101093.28
2023-01-01T19:18:25.004Z,101094.84
2023-01-01T19:21:03.045Z,101083.19
2023-01-01T19:23:31.936Z,101076.78
2023-01-01T19:26:03.315Z,101080.47
2023-01-01T19:28:34.266Z,101071.13
2023-01-01T19:31:06.266Z,101069.81
2023-01-01T19:33:34.867Z,101057.63
2023-01-01T19:36:03.062Z,101062.81
2023-01-01T19:38:32.369Z,101051.63
2023-01-01T19:41:00.629Z,101045.88
2023-01-01T19:43:28.801Z,101031.34
2023-01-01T19:45:57.087Z,101040.03
2023-01-01T19:48:26.684Z,101027.81
2023-01-01T19:50:54.882Z,101023.94
2023-01-01T19:53:23.362Z,101022.75
2023-01-01T19:55:51.575Z,101006.69
2023-01-01T19:58:22.135Z,101002.41
2023-01-01T20:00:50.856Z,100995.69
2023-01-01T20:03:52.891Z,100984.88
2023-01-01T20:06:10.664Z,100972.28
2023-01-01T20:08:39.165Z,100972.97
2023-01-01T20:11:08.414Z,100965.56
2023-01-01T20:13:36.682Z,100967.81
2023-01-01T20:16:05.418Z,100969.75
2023-01-01T20:18:34.283Z,100963.13
2023-01-01T20:21:25.653Z,100968.00
2023-01-01T20:23:56.538Z,100945.63
2023-01-01T20:26:26.067Z,100947.63
2023-01-01T20:29:11.759Z,100935.41
2023-01-01T20:31:40.485Z,100915.16
2023-01-01T20:34:08.729Z,100915.25
2023-01-01T20:36:54.907Z,100908.47
2023-01-01T20:39:24.714Z,100920.09
2023-01-01T20:41:52.897Z,100917.59
2023-01-01T20:44:21.114Z,100903.53
2023-01-01T20:46:49.705Z,100911.59
2023-01-01T20:49:18.438Z,100904.19
2023-01-01T20:51:47.113Z,100904.75
2023-01-01T20:54:15.321Z,100899.75
2023-01-01T20:56:45.083Z,100898.84
2023-01-01T20:59:34.068Z,100898.56
2023-01-01T21:02:01.876Z,100896.13
2023-01-01T21:04:30.207Z,100893.75
2023-01-01T21:06:58.448Z,100891.44
2023-01-01T21:09:26.697Z,100889.41
2023-01-01T21:11:56.266Z,100888.56
2023-01-01T21:14:26.247Z,100873.66
2023-01-01T21:16:54.624Z,100877.03
2023-01-01T21:19:26.942Z,100874.66
2023-01-01T21:21:57.999Z,100874.09
2023-01-01T21:24:28.878Z,100882.41
2023-01-01T21:27:10.470Z,100876.84
2023-01-01T21:29:44.752Z,100881.50
2023-01-01T21:32:21.025Z,100865.69
2023-01-01T21:34:50.694Z,100851.03
2023-01-01T21:37:42.971Z,100853.41
2023-01-01T21:40:38.431Z,100859.09
2023-01-01T21:43:33.432Z,100844.47
2023-01-01T21:46:18.654Z,100845.25
2023-01-01T21:48:56.592Z,100840.66
2023-01-01T21:51:26.772Z,100848.97
2023-01-01T21:54:03.325Z,100847.81
2023-01-01T21:56:36.213Z,100840.66
2023-01-01T21:59:27.523Z,100836.38
2023-01-01T22:02:01.930Z,100834.41
2023-01-01T22:04:37.592Z,100829.59
2023-01-01T22:10:16.801Z,100829.09
2023-01-01T22:12:45.348Z,100824.81
2023-01-01T22:15:39.152Z,100811.75
2023-01-01T22:18:25.023Z,100816.50
2023-01-01T22:20:53.348Z,100828.81
2023-01-01T22:23:34.831Z,100825.19
2023-01-01T22:26:13.513Z,100832.72
2023-01-01T22:28:44.612Z,100831.66
2023-01-01T22:31:19.779Z,100828.22
2023-01-01T22:33:51.057Z,100822.63
2023-01-01T22:36:25.403Z,100826.53
2023-01-01T22:38:56.476Z,100819.56
2023-01-01T22:41:24.674Z,100818.25
2023-01-01T22:43:59.630Z,100815.19
2023-01-01T22:46:33.074Z,100818.88
2023-01-01T22:49:11.465Z,100818.38
2023-01-01T22:51:44.378Z,100809.84
2023-01-01T22:54:12.637Z,100803.81
2023-01-01T22:56:40.819Z,100826.25
2023-01-01T22:59:09.394Z,100813.47
2023-01-01T23:01:38.958Z,100791.13
2023-01-01T23:04:07.211Z,100805.72
2023-01-01T23:06:35.445Z,100811.00
2023-01-01T23:09:03.662Z,100806.00
2023-01-01T23:11:31.921Z,100801.50
2023-01-01T23:14:17.562Z,100792.22
2023-01-01T23:16:47.094Z,100781.22
2023-01-01T23:19:15.410Z,100769.69
2023-01-01T23:21:43.909Z,100782.22
2023-01-01T23:24:16.485Z,100776.00
2023-01-01T23:26:45.119Z,100779.19
2023-01-01T23:29:15.478Z,100776.41
2023-01-01T23:31:44.691Z,100778.47
2023-01-01T23:34:14.616Z,100772.13
2023-01-01T23:36:44.411Z,100767.88
2023-01-01T23:39:12.681Z,100772.03
2023-01-01T23:41:40.875Z,100776.16
2023-01-01T23:44:09.078Z,100768.75
2023-01-01T23:46:39.315Z,100764.59
2023-01-01T23:49:08.238Z,100773.91
2023-01-01T23:51:40.142Z,100761.56
2023-01-01T23:54:08.610Z,100762.50
2023-01-01T23:56:36.924Z,100764.94
2023-01-01T23:59:05.236Z,100768.75
